Time;durP1;ratioP1;P1;durP2;ratioP2;P2;SDS_P1;SDS_P2;PMS_P1;PMS_P2;Temp;Humidity;BMP_temperature;BMP_pressure;BME280_temperature;BME280_humidity;BME280_pressure;Samples;Min_cycle;Max_cycle;Signal;HPM_P1;HPM_P2
2022/01/05 00:01:48;;;;;;;51.58;26.12;;;;;;;5.26;100.00;99661.41;1718712;83;21101;-76
2022/01/05 00:04:15;;;;;;;56.58;29.02;;;;;;;5.48;100.00;99657.34;1719704;82;21156;-77
2022/01/05 00:06:43;;;;;;;64.82;29.45;;;;;;;5.66;100.00;99662.81;1721440;83;21025;-76
2022/01/05 00:09:09;;;;;;;54.73;28.00;;;;;;;5.86;100.00;99658.86;1721279;81;21021;-78
2022/01/05 00:11:40;;;;;;;60.12;28.83;;;;;;;5.99;100.00;99655.30;1720848;83;22368;-76
2022/01/05 00:14:07;;;;;;;58.58;27.73;;;;;;;6.29;100.00;99652.91;1721618;83;21520;-75
2022/01/05 00:16:34;;;;;;;51.83;25.55;;;;;;;6.42;100.00;99649.26;1721060;82;21117;-76
2022/01/05 00:19:01;;;;;;;51.30;25.95;;;;;;;6.44;100.00;99649.08;1721729;83;20955;-77
2022/01/05 00:21:27;;;;;;;58.80;28.65;;;;;;;6.72;100.00;99651.50;1720728;83;20943;-75
2022/01/05 00:23:56;;;;;;;52.38;26.85;;;;;;;6.65;100.00;99656.24;1709312;83;22305;-75
2022/01/05 00:26:22;;;;;;;52.35;25.85;;;;;;;6.64;100.00;99657.23;1692352;83;21097;-77
2022/01/05 00:28:49;;;;;;;54.65;26.42;;;;;;;5.98;100.00;99660.13;1721619;83;21580;-77
2022/01/05 00:31:15;;;;;;;62.62;29.35;;;;;;;5.78;100.00;99673.12;1720569;83;20979;-77
2022/01/05 00:33:43;;;;;;;56.25;28.23;;;;;;;5.95;100.00;99664.38;1721740;83;21014;-77
2022/01/05 00:36:13;;;;;;;53.38;27.90;;;;;;;6.22;100.00;99666.20;1721186;83;20971;-78
2022/01/05 00:38:39;;;;;;;50.38;26.55;;;;;;;5.89;100.00;99662.91;1698886;83;20959;-78
2022/01/05 00:41:06;;;;;;;51.00;26.02;;;;;;;6.14;100.00;99671.39;1721247;83;21126;-78
2022/01/05 00:43:33;;;;;;;59.25;29.57;;;;;;;6.29;100.00;99667.14;1720923;83;22215;-78
2022/01/05 00:46:02;;;;;;;54.30;27.58;;;;;;;6.06;100.00;99663.17;1721654;83;20944;-78
2022/01/05 00:48:30;;;;;;;43.15;23.98;;;;;;;6.14;100.00;99668.80;1690471;83;21864;-78
2022/01/05 00:50:58;;;;;;;45.58;24.65;;;;;;;6.21;100.00;99662.81;1721599;83;21129;-78
2022/01/05 00:53:26;;;;;;;46.35;24.40;;;;;;;6.03;100.00;99649.30;1720446;83;21071;-78
2022/01/05 00:55:53;;;;;;;48.83;24.27;;;;;;;5.97;100.00;99663.70;1721500;83;22200;-80
2022/01/05 00:58:19;;;;;;;59.53;29.00;;;;;;;6.16;100.00;99658.61;1721079;83;21074;-80
2022/01/05 01:00:49;;;;;;;56.63;27.98;;;;;;;6.24;100.00;99657.27;1721330;83;21015;-79
2022/01/05 01:03:22;;;;;;;54.95;27.50;;;;;;;6.28;100.00;99659.84;1720229;82;21034;-79
2022/01/05 01:05:49;;;;;;;53.10;27.52;;;;;;;6.62;100.00;99651.41;1719258;83;21119;-79
2022/01/05 01:08:15;;;;;;;61.00;30.12;;;;;;;6.74;100.00;99649.55;1718694;81;21097;-79
2022/01/05 01:10:42;;;;;;;57.73;29.15;;;;;;;6.64;100.00;99648.16;1718629;83;21039;-76
2022/01/05 01:13:09;;;;;;;55.80;27.75;;;;;;;6.62;100.00;99648.81;1719225;83;21010;-77
2022/01/05 01:15:35;;;;;;;59.35;29.00;;;;;;;6.67;100.00;99650.41;1718218;82;20998;-77
2022/01/05 01:18:02;;;;;;;52.03;26.65;;;;;;;6.74;100.00;99650.84;1719198;83;21133;-79
2022/01/05 01:20:28;;;;;;;51.53;26.40;;;;;;;6.76;100.00;99646.78;1705316;83;21053;-78
2022/01/05 01:22:55;;;;;;;44.60;23.32;;;;;;;6.83;100.00;99643.81;1718687;82;21082;-78
2022/01/05 01:25:23;;;;;;;50.45;25.00;;;;;;;6.64;100.00;99646.38;1707636;83;21591;-77
2022/01/05 01:27:50;;;;;;;39.85;21.05;;;;;;;6.62;100.00;99637.16;1718928;82;21492;-78
2022/01/05 01:30:16;;;;;;;42.40;22.00;;;;;;;6.58;100.00;99636.20;1718579;83;21572;-76
2022/01/05 01:32:48;;;;;;;39.75;19.98;;;;;;;6.50;100.00;99623.31;1719025;83;21098;-76
2022/01/05 01:35:14;;;;;;;36.70;19.77;;;;;;;6.70;100.00;99616.38;1718760;82;21582;-76
2022/01/05 01:37:41;;;;;;;37.05;19.62;;;;;;;6.67;100.00;99612.37;1718811;83;20959;-76
2022/01/05 01:40:11;;;;;;;40.95;20.43;;;;;;;6.69;100.00;99603.13;1719204;83;21077;-76
2022/01/05 01:42:37;;;;;;;39.78;20.40;;;;;;;6.70;100.00;99597.75;1718216;83;22847;-76
2022/01/05 01:45:05;;;;;;;35.85;19.20;;;;;;;6.72;100.00;99593.72;1718981;83;20943;-76
2022/01/05 01:47:31;;;;;;;32.95;19.75;;;;;;;6.94;100.00;99594.67;1718031;83;21073;-77
2022/01/05 01:49:58;;;;;;;36.80;18.12;;;;;;;6.93;100.00;99585.27;1719362;83;21026;-75
2022/01/05 01:52:25;;;;;;;35.40;19.27;;;;;;;7.11;100.00;99584.95;1718623;82;20939;-76
2022/01/05 01:54:51;;;;;;;39.53;20.50;;;;;;;7.28;100.00;99596.28;1718725;83;21103;-76
2022/01/05 01:57:20;;;;;;;36.05;19.35;;;;;;;7.20;100.00;99595.56;1718627;83;21018;-75
2022/01/05 01:59:48;;;;;;;34.43;17.48;;;;;;;6.95;100.00;99593.19;1718742;83;20959;-76
2022/01/05 02:02:19;;;;;;;34.23;17.75;;;;;;;6.90;100.00;99596.80;1718613;83;21014;-76
2022/01/05 02:04:46;;;;;;;37.53;19.35;;;;;;;7.12;100.00;99604.20;1698623;82;21536;-75
2022/01/05 02:07:13;;;;;;;35.00;19.12;;;;;;;7.11;100.00;99597.41;1719071;82;21123;-75
2022/01/05 02:09:41;;;;;;;32.95;17.90;;;;;;;7.05;100.00;99602.82;1696714;83;20991;-75
2022/01/05 02:12:09;;;;;;;32.55;18.87;;;;;;;7.18;100.00;99604.80;1718448;83;21033;-74
2022/01/05 02:14:35;;;;;;;36.98;20.08;;;;;;;7.17;100.00;99603.20;1717747;83;21539;-77
2022/01/05 02:17:11;;;;;;;33.60;18.27;;;;;;;7.08;100.00;99597.76;1718040;83;20998;-74
2022/01/05 02:19:33;;;;;;;35.70;18.15;;;;;;;7.34;100.00;99599.13;1716746;82;21126;-77
2022/01/05 02:22:00;;;;;;;35.92;19.52;;;;;;;7.11;100.00;99599.20;1718093;83;21607;-75
2022/01/05 02:24:26;;;;;;;37.03;19.87;;;;;;;7.28;100.00;99607.14;1714882;83;20994;-73
2022/01/05 02:26:53;;;;;;;35.28;19.48;;;;;;;7.22;100.00;99606.05;1707626;83;21011;-75
2022/01/05 02:29:21;;;;;;;34.05;17.57;;;;;;;7.31;100.00;99610.19;1717690;82;22396;-77
2022/01/05 02:31:48;;;;;;;30.95;17.37;;;;;;;7.36;100.00;99617.92;1718183;83;21705;-73
2022/01/05 02:34:17;;;;;;;30.82;17.23;;;;;;;7.27;100.00;99614.59;1717765;83;20998;-72
2022/01/05 02:36:44;;;;;;;26.40;16.65;;;;;;;7.37;100.00;99609.95;1663612;85;21512;-72
2022/01/05 02:39:10;;;;;;;30.32;16.65;;;;;;;7.51;100.00;99614.84;1682490;85;21007;-77
2022/01/05 02:41:37;;;;;;;30.32;18.10;;;;;;;7.55;100.00;99609.12;1682327;85;21034;-72
2022/01/05 02:44:04;;;;;;;26.97;16.50;;;;;;;7.49;100.00;99607.23;1683655;83;21166;-72
2022/01/05 02:46:34;;;;;;;28.27;17.02;;;;;;;7.66;100.00;99616.14;1682876;84;21445;-71
2022/01/05 02:49:04;;;;;;;25.97;15.32;;;;;;;7.85;100.00;99614.30;1683004;85;20940;-76
2022/01/05 02:51:33;;;;;;;29.72;17.73;;;;;;;7.96;100.00;99612.53;1682349;85;20983;-70
2022/01/05 02:54:01;;;;;;;32.90;18.65;;;;;;;7.87;100.00;99613.60;1683630;85;21466;-69
2022/01/05 02:56:29;;;;;;;29.10;17.60;;;;;;;7.62;100.00;99612.30;1657795;85;21159;-68
2022/01/05 02:58:55;;;;;;;27.35;16.85;;;;;;;7.41;100.00;99608.62;1684144;85;20955;-70
2022/01/05 03:01:22;;;;;;;26.73;16.17;;;;;;;7.36;100.00;99612.24;1681742;83;21118;-70
2022/01/05 03:03:48;;;;;;;28.50;15.83;;;;;;;7.60;100.00;99614.25;1683654;83;20975;-70
2022/01/05 03:06:14;;;;;;;28.77;15.90;;;;;;;7.62;100.00;99610.52;1715380;82;21050;-70
2022/01/05 03:08:41;;;;;;;26.60;15.30;;;;;;;7.55;100.00;99610.91;1716057;82;21084;-68
2022/01/05 03:11:07;;;;;;;29.20;16.93;;;;;;;7.40;100.00;99596.64;1715448;83;21050;-78
2022/01/05 03:13:36;;;;;;;27.60;16.20;;;;;;;7.62;100.00;99601.92;1714689;83;20994;-69
2022/01/05 03:16:03;;;;;;;29.48;18.30;;;;;;;7.38;100.00;99606.38;1715956;83;21015;-69
2022/01/05 03:18:31;;;;;;;27.13;16.60;;;;;;;7.32;100.00;99609.70;1715579;83;20946;-69
2022/01/05 03:20:57;;;;;;;27.07;17.17;;;;;;;6.98;100.00;99605.00;1716120;83;21625;-68
2022/01/05 03:23:26;;;;;;;29.18;17.02;;;;;;;6.88;100.00;99609.11;1714198;82;21575;-69
2022/01/05 03:25:54;;;;;;;26.70;15.32;;;;;;;7.08;100.00;99613.30;1716112;83;21407;-68
2022/01/05 03:28:21;;;;;;;26.62;15.53;;;;;;;6.97;100.00;99614.56;1715309;83;20915;-70
2022/01/05 03:30:47;;;;;;;26.02;16.12;;;;;;;7.45;100.00;99603.38;1715962;83;20975;-69
2022/01/05 03:33:19;;;;;;;29.95;16.95;;;;;;;7.69;100.00;99607.98;1715817;82;21123;-76
2022/01/05 03:35:45;;;;;;;30.70;16.27;;;;;;;8.05;100.00;99597.66;1683899;83;21120;-70
2022/01/05 03:38:15;;;;;;;28.70;17.15;;;;;;;7.79;100.00;99602.03;1718513;83;21073;-69
2022/01/05 03:40:45;;;;;;;30.48;16.23;;;;;;;8.04;100.00;99594.75;1696809;83;21061;-69
2022/01/05 03:43:13;;;;;;;28.80;16.10;;;;;;;8.08;100.00;99593.89;1717431;82;21708;-75
2022/01/05 03:45:40;;;;;;;26.42;15.80;;;;;;;8.16;100.00;99589.39;1718326;83;21130;-69
2022/01/05 03:48:12;;;;;;;28.30;16.50;;;;;;;7.66;100.00;99589.71;1718639;83;20939;-71
2022/01/05 03:50:40;;;;;;;27.70;15.93;;;;;;;7.80;100.00;99581.58;1718299;83;20915;-69
2022/01/05 03:53:07;;;;;;;28.15;16.07;;;;;;;7.62;100.00;99588.46;1718033;83;20959;-75
2022/01/05 03:55:39;;;;;;;27.65;15.38;;;;;;;7.73;100.00;99585.41;1717713;83;21457;-69
2022/01/05 03:58:07;;;;;;;34.30;18.48;;;;;;;7.77;100.00;99577.58;1718860;83;21155;-70
2022/01/05 04:00:37;;;;;;;31.77;17.32;;;;;;;7.96;100.00;99567.61;1724359;79;21264;-69
2022/01/05 04:03:04;;;;;;;29.32;16.93;;;;;;;7.92;100.00;99571.06;1754732;81;20882;-75
2022/01/05 04:05:33;;;;;;;29.37;16.52;;;;;;;7.99;100.00;99565.46;1776384;80;21072;-68
2022/01/05 04:08:02;;;;;;;28.73;15.98;;;;;;;8.12;100.00;99566.58;1776528;80;21971;-69
2022/01/05 04:10:30;;;;;;;28.50;16.45;;;;;;;8.43;100.00;99554.62;1776016;79;21422;-69
2022/01/05 04:12:58;;;;;;;30.77;17.37;;;;;;;8.31;100.00;99560.78;1774949;80;21014;-74
2022/01/05 04:15:25;;;;;;;26.42;16.32;;;;;;;8.38;100.00;99558.29;1774499;80;20935;-69
2022/01/05 04:17:51;;;;;;;27.85;16.15;;;;;;;8.72;100.00;99558.38;1776591;80;21003;-69
2022/01/05 04:20:18;;;;;;;24.95;15.05;;;;;;;8.36;100.00;99550.63;1776363;80;21454;-69
2022/01/05 04:22:48;;;;;;;25.37;14.95;;;;;;;8.35;100.00;99559.92;1775136;80;21132;-70
2022/01/05 04:25:14;;;;;;;25.30;14.93;;;;;;;8.39;100.00;99549.00;1743948;80;20932;-71
2022/01/05 04:27:41;;;;;;;29.50;17.12;;;;;;;8.39;100.00;99556.79;1740203;80;21092;-71
2022/01/05 04:30:09;;;;;;;26.93;15.35;;;;;;;8.47;100.00;99550.16;1738869;80;21013;-69
2022/01/05 04:32:36;;;;;;;26.42;15.43;;;;;;;8.50;100.00;99547.20;1708129;81;20953;-69
2022/01/05 04:35:03;;;;;;;29.07;16.73;;;;;;;8.46;100.00;99552.47;1707086;81;21148;-80
2022/01/05 04:37:32;;;;;;;26.87;15.32;;;;;;;8.56;100.00;99542.23;1727461;81;21391;-68
2022/01/05 04:40:02;;;;;;;26.23;15.15;;;;;;;8.75;100.00;99539.83;1707075;81;21487;-68
2022/01/05 04:42:29;;;;;;;31.50;15.88;;;;;;;7.83;100.00;99532.42;1713487;81;21034;-70
2022/01/05 04:44:58;;;;;;;29.77;19.62;;;;;;;8.26;100.00;99534.58;1777054;80;21011;-68
2022/01/05 04:47:26;;;;;;;112.57;69.00;;;;;;;8.01;100.00;99528.93;1703075;82;21138;-69
2022/01/05 04:49:56;;;;;;;66.53;41.25;;;;;;;7.92;100.00;99532.14;1738662;80;21004;-70
2022/01/05 04:52:24;;;;;;;155.18;84.83;;;;;;;7.82;100.00;99534.71;1757561;80;20935;-71
2022/01/05 04:54:51;;;;;;;56.37;33.25;;;;;;;7.84;100.00;99532.73;1776018;80;21014;-69
2022/01/05 04:57:19;;;;;;;54.73;36.38;;;;;;;7.84;100.00;99529.66;1775203;80;21005;-70
2022/01/05 04:59:47;;;;;;;35.17;24.05;;;;;;;7.91;100.00;99528.41;1776640;80;21135;-70
2022/01/05 05:02:14;;;;;;;35.48;25.15;;;;;;;7.85;100.00;99515.69;1766974;80;20991;-70
2022/01/05 05:04:41;;;;;;;30.45;20.12;;;;;;;7.89;100.00;99518.73;1773896;80;20939;-70
2022/01/05 05:07:07;;;;;;;20.95;13.90;;;;;;;8.02;100.00;99520.15;1775874;80;21537;-72
2022/01/05 05:09:35;;;;;;;23.05;14.15;;;;;;;7.93;100.00;99516.88;1775445;80;21088;-70
2022/01/05 05:12:06;;;;;;;26.68;17.90;;;;;;;7.89;100.00;99515.64;1776519;80;21096;-73
2022/01/05 05:14:32;;;;;;;33.30;21.00;;;;;;;7.84;100.00;99509.38;1776923;80;21103;-71
2022/01/05 05:17:01;;;;;;;202.40;103.30;;;;;;;7.84;100.00;99509.38;1775698;80;21083;-72
2022/01/05 05:19:31;;;;;;;88.75;47.08;;;;;;;7.99;100.00;99499.75;1775087;80;21536;-70
2022/01/05 05:21:58;;;;;;;78.28;42.50;;;;;;;8.02;100.00;99497.59;1776551;80;20911;-70
2022/01/05 05:24:24;;;;;;;56.08;34.43;;;;;;;7.95;100.00;99499.31;1775857;79;22050;-69
2022/01/05 05:26:53;;;;;;;28.07;18.67;;;;;;;7.95;100.00;99499.81;1776324;80;21624;-71
2022/01/05 05:29:21;;;;;;;33.92;22.80;;;;;;;7.93;100.00;99493.52;1775388;80;21367;-72
2022/01/05 05:31:48;;;;;;;45.28;35.63;;;;;;;8.08;100.00;99497.86;1776065;80;20991;-72
2022/01/05 05:34:16;;;;;;;129.57;79.25;;;;;;;8.26;100.00;99498.23;1775822;80;20959;-71
2022/01/05 05:36:45;;;;;;;38.85;28.95;;;;;;;8.41;100.00;99485.17;1776001;80;21034;-71
2022/01/05 05:39:12;;;;;;;24.37;17.42;;;;;;;8.33;100.00;99478.79;1773910;79;20963;-73
2022/01/05 05:41:39;;;;;;;27.00;18.87;;;;;;;8.45;100.00;99483.34;1754400;81;22254;-72
2022/01/05 05:44:06;;;;;;;25.40;18.27;;;;;;;8.33;100.00;99483.98;1776732;80;21026;-72
2022/01/05 05:46:34;;;;;;;22.62;16.75;;;;;;;8.69;100.00;99467.81;1775939;80;21568;-73
2022/01/05 05:49:01;;;;;;;20.32;13.78;;;;;;;8.69;100.00;99468.31;1775438;80;21277;-70
2022/01/05 05:51:28;;;;;;;21.82;14.70;;;;;;;8.65;100.00;99474.88;1775689;79;21018;-71
2022/01/05 05:53:54;;;;;;;20.45;12.98;;;;;;;8.60;100.00;99469.44;1776648;79;21082;-71
2022/01/05 05:56:23;;;;;;;16.07;11.43;;;;;;;8.55;100.00;99470.51;1776015;80;20928;-70
2022/01/05 05:58:49;;;;;;;17.77;11.35;;;;;;;7.98;100.00;99461.31;1776657;80;21010;-69
2022/01/05 06:01:16;;;;;;;16.62;10.45;;;;;;;7.65;100.00;99461.48;1776020;80;21101;-71
2022/01/05 06:03:42;;;;;;;16.65;11.12;;;;;;;7.67;100.00;99453.03;1774327;80;22113;-69
2022/01/05 06:06:10;;;;;;;15.53;10.50;;;;;;;7.87;100.00;99454.02;1774959;80;21003;-70
2022/01/05 06:08:39;;;;;;;16.20;10.00;;;;;;;7.73;100.00;99454.91;1781273;80;21529;-71
2022/01/05 06:11:07;;;;;;;13.83;9.43;;;;;;;7.78;100.00;99443.47;1765393;80;21468;-69
2022/01/05 06:13:35;;;;;;;13.20;9.48;;;;;;;7.96;100.00;99445.14;1780805;80;22337;-70
2022/01/05 06:16:04;;;;;;;12.82;8.80;;;;;;;8.00;100.00;99428.21;1779599;80;20980;-70
2022/01/05 06:18:30;;;;;;;12.98;7.95;;;;;;;8.21;100.00;99426.07;1779181;80;20967;-70
2022/01/05 06:20:58;;;;;;;13.32;8.13;;;;;;;8.37;100.00;99412.06;1781274;80;21516;-69
2022/01/05 06:23:25;;;;;;;11.90;7.45;;;;;;;8.02;100.00;99421.02;1778507;80;20990;-70
2022/01/05 06:25:53;;;;;;;12.47;8.45;;;;;;;8.30;100.00;99413.78;1774937;80;21522;-71
2022/01/05 06:28:20;;;;;;;12.15;8.08;;;;;;;8.11;100.00;99406.64;1777330;80;21399;-70
2022/01/05 06:30:46;;;;;;;11.50;7.53;;;;;;;8.31;100.00;99393.30;1781124;80;21437;-71
2022/01/05 06:33:13;;;;;;;10.78;7.10;;;;;;;8.42;100.00;99401.10;1780805;80;20998;-71
2022/01/05 06:35:44;;;;;;;12.60;7.72;;;;;;;8.29;100.00;99404.36;1779984;80;20990;-71
2022/01/05 06:38:10;;;;;;;11.20;7.08;;;;;;;7.88;100.00;99402.93;1770734;80;21117;-72
2022/01/05 06:40:37;;;;;;;11.75;6.67;;;;;;;7.92;100.00;99397.70;1780384;80;20944;-72
2022/01/05 06:43:03;;;;;;;9.85;6.83;;;;;;;7.82;100.00;99392.81;1781527;80;21002;-72
2022/01/05 06:45:30;;;;;;;11.08;6.83;;;;;;;7.96;100.00;99387.25;1779724;80;20950;-70
2022/01/05 06:47:58;;;;;;;11.97;7.05;;;;;;;7.49;100.00;99382.91;1781019;80;21661;-72
2022/01/05 06:50:25;;;;;;;9.98;6.28;;;;;;;7.94;100.00;99387.92;1781144;80;21972;-71
2022/01/05 06:52:53;;;;;;;10.15;6.80;;;;;;;7.91;100.00;99381.30;1781071;80;21473;-70
2022/01/05 06:55:19;;;;;;;16.42;9.20;;;;;;;7.74;100.00;99374.28;1780465;80;21399;-70
2022/01/05 06:57:51;;;;;;;15.03;7.42;;;;;;;7.72;100.00;99362.48;1779625;80;20924;-70
2022/01/05 07:00:20;;;;;;;14.10;7.33;;;;;;;7.96;100.00;99347.03;1780641;80;20951;-70
2022/01/05 07:02:47;;;;;;;13.83;7.45;;;;;;;7.92;100.00;99338.82;1780927;80;21808;-69
2022/01/05 07:05:14;;;;;;;18.12;9.13;;;;;;;8.30;100.00;99325.50;1780346;80;21039;-69
2022/01/05 07:07:40;;;;;;;22.82;10.48;;;;;;;8.32;100.00;99317.50;1768354;80;21094;-69
2022/01/05 07:10:08;;;;;;;14.80;7.50;;;;;;;8.42;100.00;99308.91;1779368;80;20945;-68
2022/01/05 07:12:40;;;;;;;15.53;8.53;;;;;;;8.65;100.00;99299.52;1780311;80;20994;-68
2022/01/05 07:15:07;;;;;;;;;;;;;;;8.68;100.00;99292.14;1777083;80;22099;-69
2022/01/05 07:17:34;;;;;;;29.42;13.18;;;;;;;8.74;100.00;99290.55;1780098;80;20171;-69
2022/01/05 07:20:01;;;;;;;17.37;8.20;;;;;;;8.73;100.00;99283.77;1772445;80;21018;-69
2022/01/05 07:22:27;;;;;;;22.80;11.55;;;;;;;9.02;100.00;99286.56;1780479;80;20999;-69
2022/01/05 07:24:54;;;;;;;18.17;9.58;;;;;;;8.93;100.00;99281.22;1780817;80;20996;-68
2022/01/05 07:27:22;;;;;;;20.88;10.28;;;;;;;8.89;100.00;99278.20;1779763;80;22116;-71
2022/01/05 07:29:51;;;;;;;16.00;8.35;;;;;;;8.97;100.00;99279.83;1780436;80;21086;-70
2022/01/05 07:32:17;;;;;;;16.52;8.23;;;;;;;8.90;100.00;99280.30;1779249;80;21590;-70
2022/01/05 07:34:45;;;;;;;11.68;6.83;;;;;;;8.70;100.00;99269.86;1780185;80;20943;-70
2022/01/05 07:37:11;;;;;;;11.65;6.20;;;;;;;8.27;100.00;99284.33;1781189;80;21004;-71
2022/01/05 07:39:42;;;;;;;11.10;6.12;;;;;;;8.12;100.00;99277.95;1768058;80;20971;-71
2022/01/05 07:42:09;;;;;;;8.15;4.55;;;;;;;8.33;100.00;99271.06;1775335;80;20982;-70
2022/01/05 07:44:39;;;;;;;10.80;6.28;;;;;;;8.78;100.00;99274.88;1780346;80;22205;-68
2022/01/05 07:47:06;;;;;;;8.40;5.15;;;;;;;9.12;100.00;99266.66;1778060;80;21055;-68
2022/01/05 07:49:34;;;;;;;9.70;5.58;;;;;;;9.27;100.00;99267.28;1772445;80;21519;-68
2022/01/05 07:52:00;;;;;;;90.50;38.83;;;;;;;8.63;100.00;99269.03;1780071;80;21145;-68
2022/01/05 07:54:27;;;;;;;22.67;11.97;;;;;;;8.57;100.00;99278.91;1776480;80;21638;-69
2022/01/05 07:56:53;;;;;;;317.82;108.00;;;;;;;8.40;100.00;99267.53;1766423;80;20993;-71
2022/01/05 07:59:20;;;;;;;97.12;34.80;;;;;;;8.39;100.00;99260.75;1775970;80;21030;-71
2022/01/05 08:01:47;;;;;;;270.80;108.72;;;;;;;8.27;100.00;99266.16;1768019;80;21347;-69
2022/01/05 08:04:16;;;;;;;20.82;10.48;;;;;;;7.60;100.00;99274.50;1738475;81;21121;-69
2022/01/05 08:06:43;;;;;;;61.88;34.80;;;;;;;7.63;100.00;99270.23;1737945;81;21017;-68
2022/01/05 08:09:10;;;;;;;16.27;9.80;;;;;;;7.72;100.00;99263.41;1748858;81;21068;-68
2022/01/05 08:11:36;;;;;;;157.12;89.47;;;;;;;8.00;100.00;99260.82;1711353;82;21070;-68
2022/01/05 08:14:02;;;;;;;56.60;32.95;;;;;;;7.99;100.00;99251.91;1677641;83;21071;-69
2022/01/05 08:16:29;;;;;;;30.82;22.67;;;;;;;8.14;100.00;99242.71;1686748;83;21840;-67
2022/01/05 08:18:57;;;;;;;20.08;15.78;;;;;;;8.37;100.00;99239.82;1725840;82;22422;-66
2022/01/05 08:21:24;;;;;;;9.55;5.45;;;;;;;8.67;100.00;99231.27;1729229;82;21026;-67
2022/01/05 08:23:51;;;;;;;11.10;6.05;;;;;;;8.50;100.00;99230.33;1713274;83;21034;-68
2022/01/05 08:26:17;;;;;;;8.75;5.15;;;;;;;8.86;100.00;99227.92;1733134;82;20965;-67
2022/01/05 08:28:43;;;;;;;7.65;3.85;;;;;;;9.15;100.00;99207.78;1712603;83;21147;-66
2022/01/05 08:31:10;;;;;;;20.30;11.97;;;;;;;9.43;100.00;99197.98;1685407;85;21020;-66
2022/01/05 08:33:37;;;;;;;61.30;27.75;;;;;;;8.96;100.00;99199.75;1683312;85;20981;-67
2022/01/05 08:36:04;;;;;;;34.63;18.52;;;;;;;9.11;100.00;99183.97;1685462;85;21084;-67
2022/01/05 08:38:33;;;;;;;28.85;15.23;;;;;;;9.11;100.00;99176.67;1683447;83;21632;-68
2022/01/05 08:40:59;;;;;;;29.12;14.83;;;;;;;9.24;100.00;99178.79;1672141;85;21428;-67
2022/01/05 08:43:26;;;;;;;159.12;63.42;;;;;;;9.32;100.00;99174.36;1684678;85;20973;-69
2022/01/05 08:45:53;;;;;;;17.52;8.70;;;;;;;9.53;100.00;99183.76;1685252;85;21098;-67
2022/01/05 08:48:19;;;;;;;78.20;31.35;;;;;;;9.31;100.00;99177.97;1683910;85;21017;-67
2022/01/05 08:50:47;;;;;;;99.20;39.60;;;;;;;9.36;100.00;99195.09;1684826;85;21499;-68
2022/01/05 08:53:14;;;;;;;41.05;17.45;;;;;;;9.49;100.00;99193.26;1685127;84;22408;-69
2022/01/05 08:55:44;;;;;;;36.70;17.12;;;;;;;9.60;100.00;99193.15;1725918;82;21058;-68
2022/01/05 08:58:12;;;;;;;9.68;5.75;;;;;;;9.33;100.00;99182.48;1730113;82;21031;-69
2022/01/05 09:00:39;;;;;;;12.65;6.40;;;;;;;9.48;100.00;99189.57;1733504;82;21542;-68
2022/01/05 09:03:05;;;;;;;7.75;4.35;;;;;;;9.77;100.00;99181.00;1745549;80;21052;-68
2022/01/05 09:05:32;;;;;;;7.08;4.08;;;;;;;9.90;100.00;99181.78;1767761;80;22386;-68
2022/01/05 09:08:02;;;;;;;11.90;5.95;;;;;;;9.80;100.00;99176.19;1755381;80;21087;-68
2022/01/05 09:10:29;;;;;;;10.82;5.10;;;;;;;9.77;100.00;99171.39;1756492;80;21099;-67
2022/01/05 09:12:56;;;;;;;7.28;3.58;;;;;;;9.72;100.00;99163.41;1763265;80;21062;-66
2022/01/05 09:15:27;;;;;;;6.75;3.75;;;;;;;9.85;100.00;99179.00;1758312;80;21311;-68
2022/01/05 09:17:55;;;;;;;7.85;3.75;;;;;;;9.85;100.00;99172.49;1736302;81;21134;-67
2022/01/05 09:20:25;;;;;;;16.07;9.73;;;;;;;10.04;100.00;99182.55;1761728;80;21583;-66
2022/01/05 09:22:55;;;;;;;6.67;3.47;;;;;;;10.13;100.00;99185.71;1757001;80;21047;-67
2022/01/05 09:25:23;;;;;;;9.33;4.15;;;;;;;10.07;100.00;99193.03;1750921;80;21079;-67
2022/01/05 09:27:51;;;;;;;7.83;3.72;;;;;;;9.96;100.00;99186.66;1764300;80;20940;-67
2022/01/05 09:30:18;;;;;;;14.00;11.20;;;;;;;9.87;100.00;99182.69;1768485;80;21125;-67
2022/01/05 09:32:44;;;;;;;6.47;4.35;;;;;;;9.57;100.00;99182.34;1769718;80;21463;-67
2022/01/05 09:35:17;;;;;;;7.70;3.47;;;;;;;9.59;100.00;99186.86;1763308;80;21031;-68
2022/01/05 09:43:05;;;;;;;7.40;4.55;;;;;;;9.49;100.00;99188.06;1760728;80;21044;-68
2022/01/05 09:45:35;;;;;;;10.82;6.25;;;;;;;9.48;100.00;99191.67;1762622;80;21086;-67
2022/01/05 09:48:21;;;;;;;12.25;5.20;;;;;;;9.32;100.00;99205.09;1753722;80;21149;-66
2022/01/05 09:51:01;;;;;;;11.43;5.62;;;;;;;9.36;100.00;99196.39;1709708;83;21154;-66
2022/01/05 09:53:30;;;;;;;12.03;6.97;;;;;;;9.53;100.00;99185.85;1761132;80;20924;-66
2022/01/05 09:55:56;;;;;;;11.83;6.58;;;;;;;9.41;100.00;99184.37;1769531;80;21123;-66
2022/01/05 09:58:23;;;;;;;9.30;6.08;;;;;;;9.38;100.00;99188.67;1768385;80;21340;-67
2022/01/05 10:00:53;;;;;;;9.73;5.28;;;;;;;9.33;100.00;99178.58;1769259;80;21561;-66
2022/01/05 10:03:22;;;;;;;9.73;5.90;;;;;;;9.21;100.00;99175.28;1763847;80;20992;-66
2022/01/05 10:05:48;;;;;;;9.50;6.03;;;;;;;9.09;100.00;99176.06;1757550;80;21401;-67
2022/01/05 10:08:18;;;;;;;9.28;6.08;;;;;;;9.23;100.00;99170.66;1735890;81;21457;-65
2022/01/05 10:10:44;;;;;;;12.85;6.08;;;;;;;9.28;100.00;99175.77;1760577;80;21042;-67
2022/01/05 10:13:14;;;;;;;11.43;6.37;;;;;;;9.79;100.00;99169.90;1752189;80;21086;-66
2022/01/05 10:15:44;;;;;;;12.58;6.22;;;;;;;10.16;100.00;99160.06;1744902;80;20988;-66
2022/01/05 10:18:18;;;;;;;9.75;5.85;;;;;;;9.49;100.00;99160.74;1757602;80;21090;-66
2022/01/05 10:21:05;;;;;;;14.43;6.72;;;;;;;9.36;100.00;99172.48;1754241;80;21372;-66
2022/01/05 10:23:45;;;;;;;12.93;7.03;;;;;;;9.40;100.00;99158.06;1755827;80;20920;-66
2022/01/05 10:26:31;;;;;;;9.98;6.40;;;;;;;9.45;100.00;99162.16;1763984;80;21016;-68
2022/01/05 10:29:06;;;;;;;11.53;5.97;;;;;;;10.01;100.00;99152.22;1762906;80;20940;-67
2022/01/05 10:31:37;;;;;;;10.05;5.53;;;;;;;10.20;100.00;99137.02;1769721;80;21025;-67
2022/01/05 10:34:21;;;;;;;11.33;5.55;;;;;;;9.92;100.00;99126.39;1764081;80;21137;-68
2022/01/05 10:36:57;;;;;;;10.05;5.45;;;;;;;9.91;100.00;99110.48;1761752;80;21090;-67
2022/01/05 10:39:39;;;;;;;56.73;35.83;;;;;;;10.26;100.00;99108.05;1764304;80;21838;-67
2022/01/05 10:42:09;;;;;;;13.90;7.78;;;;;;;10.21;100.00;99109.45;1763490;80;21026;-67
2022/01/05 10:44:38;;;;;;;15.35;7.42;;;;;;;10.23;100.00;99113.95;1760655;80;21070;-67
2022/01/05 10:47:05;;;;;;;15.23;7.50;;;;;;;10.35;100.00;99091.19;1768306;80;22069;-67
2022/01/05 10:49:39;;;;;;;13.35;6.90;;;;;;;9.78;100.00;99079.83;1758467;80;21059;-67
2022/01/05 10:52:30;;;;;;;15.30;8.80;;;;;;;9.56;100.00;99081.90;1765759;80;22240;-68
2022/01/05 10:55:21;;;;;;;10.68;5.87;;;;;;;9.39;100.00;99065.92;1769306;80;21482;-68
2022/01/05 10:58:11;;;;;;;9.78;5.85;;;;;;;9.54;100.00;99072.19;1765338;80;21038;-69
2022/01/05 11:00:45;;;;;;;9.70;5.40;;;;;;;9.58;100.00;99072.07;1765045;80;21132;-68
2022/01/05 11:03:39;;;;;;;12.23;5.47;;;;;;;9.73;100.00;99066.91;1763226;80;20951;-68
2022/01/05 11:06:14;;;;;;;10.82;5.30;;;;;;;9.68;100.00;99056.83;1735082;81;21007;-68
2022/01/05 11:09:01;;;;;;;12.05;5.97;;;;;;;9.65;100.00;99066.34;1759191;80;21079;-70
2022/01/05 11:11:43;;;;;;;10.48;6.83;;;;;;;9.65;100.00;99068.44;1768877;80;20995;-67
2022/01/05 11:14:17;;;;;;;10.58;6.22;;;;;;;9.84;100.00;99051.66;1768082;80;21128;-68
2022/01/05 11:16:52;;;;;;;10.08;5.85;;;;;;;9.69;100.00;99054.02;1757655;80;21598;-68
2022/01/05 11:19:37;;;;;;;10.58;5.97;;;;;;;9.72;100.00;99052.81;1744319;81;21070;-68
2022/01/05 11:22:14;;;;;;;13.13;6.55;;;;;;;9.63;100.00;99057.45;1762362;80;21046;-68
2022/01/05 11:24:53;;;;;;;11.95;5.85;;;;;;;9.80;100.00;99061.67;1769530;80;21067;-68
2022/01/05 11:27:28;;;;;;;13.68;6.62;;;;;;;9.56;100.00;99060.58;1769531;80;21122;-68
2022/01/05 11:29:55;;;;;;;16.00;8.40;;;;;;;9.66;100.00;99055.75;1770616;80;20971;-67
2022/01/05 11:32:27;;;;;;;10.63;5.37;;;;;;;9.80;100.00;99060.38;1769586;80;20959;-67
2022/01/05 11:34:57;;;;;;;13.13;6.65;;;;;;;9.78;100.00;99046.79;1768920;80;20992;-68